Time;durP1;ratioP1;P1;durP2;ratioP2;P2;SDS_P1;SDS_P2;PMS_P1;PMS_P2;Temp;Humidity;BMP_temperature;BMP_pressure;BME280_temperature;BME280_humidity;BME280_pressure;Samples;Min_cycle;Max_cycle;Signal;HPM_P1;HPM_P2
2021/04/26 00:00:34;;;;;;;3.30;2.80;;;9.60;50.40;;;;;;5057423;28;20449;-70
2021/04/26 00:03:01;;;;;;;6.50;3.10;;;9.60;50.40;;;;;;5057259;28;20468;-70
2021/04/26 00:05:28;;;;;;;4.77;3.70;;;9.60;50.40;;;;;;5056951;28;20458;-70
2021/04/26 00:07:55;;;;;;;5.67;3.53;;;9.60;50.50;;;;;;5056871;28;20452;-70
2021/04/26 00:10:23;;;;;;;5.00;3.90;;;9.50;50.40;;;;;;5056843;28;20469;-70
2021/04/26 00:12:49;;;;;;;4.07;3.50;;;9.40;50.50;;;;;;5056729;28;20488;-70
2021/04/26 00:15:19;;;;;;;9.63;3.80;;;9.40;50.50;;;;;;5056801;28;20445;-70
2021/04/26 00:17:45;;;;;;;7.13;3.60;;;9.40;50.70;;;;;;5057068;28;20460;-70
2021/04/26 00:20:13;;;;;;;6.57;3.17;;;9.30;50.80;;;;;;5056995;28;20461;-70
2021/04/26 00:22:40;;;;;;;3.87;3.13;;;9.30;50.80;;;;;;5057265;28;20449;-70
2021/04/26 00:25:09;;;;;;;6.40;3.43;;;9.20;50.90;;;;;;5056925;28;20449;-70
2021/04/26 00:27:37;;;;;;;4.90;3.60;;;9.20;51.00;;;;;;5056475;28;21004;-70
2021/04/26 00:30:06;;;;;;;4.63;3.90;;;9.20;51.10;;;;;;5056590;28;20468;-70
2021/04/26 00:32:32;;;;;;;6.40;3.23;;;9.20;51.10;;;;;;5056712;28;20519;-70
2021/04/26 00:34:58;;;;;;;8.97;4.17;;;9.10;51.20;;;;;;5056672;28;20813;-70
2021/04/26 00:37:24;;;;;;;5.00;3.33;;;9.10;51.30;;;;;;5056559;28;20446;-70
2021/04/26 00:39:51;;;;;;;5.53;3.40;;;9.00;51.20;;;;;;5055879;28;20481;-70
2021/04/26 00:42:18;;;;;;;3.40;3.03;;;9.00;51.60;;;;;;5056598;28;20449;-70
2021/04/26 00:44:44;;;;;;;5.57;3.30;;;8.90;51.50;;;;;;5056634;28;20449;-70
2021/04/26 00:47:10;;;;;;;5.57;3.43;;;8.90;51.60;;;;;;5056119;28;20446;-70
2021/04/26 00:49:36;;;;;;;8.10;3.93;;;8.80;51.60;;;;;;5055994;28;20469;-71
2021/04/26 00:52:03;;;;;;;3.87;3.50;;;8.80;51.90;;;;;;5056025;28;20489;-71
2021/04/26 00:54:29;;;;;;;5.90;3.33;;;8.80;51.80;;;;;;5056024;28;20442;-70
2021/04/26 00:56:56;;;;;;;5.37;3.90;;;8.80;51.90;;;;;;5055612;28;20995;-70
2021/04/26 00:59:23;;;;;;;7.10;3.33;;;8.80;52.00;;;;;;5055600;28;20969;-70
2021/04/26 01:01:49;;;;;;;6.67;4.20;;;8.70;52.10;;;;;;5055858;28;20485;-70
2021/04/26 01:04:16;;;;;;;6.73;3.70;;;8.70;52.20;;;;;;5055827;28;20450;-70
2021/04/26 01:06:42;;;;;;;5.93;3.83;;;8.60;52.10;;;;;;5055464;28;21018;-70
2021/04/26 01:09:09;;;;;;;5.87;3.30;;;8.60;52.20;;;;;;5055687;28;20470;-71
2021/04/26 01:11:46;;;;;;;6.90;3.00;;;8.60;52.10;;;;;;5055603;28;20481;-71
2021/04/26 01:14:24;;;;;;;7.63;3.67;;;8.50;52.30;;;;;;5055598;28;20495;-71
2021/04/26 01:16:55;;;;;;;4.60;3.60;;;8.40;52.20;;;;;;5055285;28;20438;-70
2021/04/26 01:19:50;;;;;;;6.13;3.40;;;8.40;52.40;;;;;;5055200;28;21045;-70
2021/04/26 01:22:33;;;;;;;6.57;3.87;;;8.40;52.50;;;;;;5055502;28;20425;-70
2021/04/26 01:25:07;;;;;;;6.10;3.53;;;8.30;52.60;;;;;;5055416;28;20457;-70
2021/04/26 01:27:51;;;;;;;3.97;3.50;;;8.30;52.70;;;;;;5055436;28;20480;-70
2021/04/26 01:30:22;;;;;;;7.47;3.43;;;8.30;53.00;;;;;;5055292;28;20470;-70
2021/04/26 01:32:56;;;;;;;4.27;3.40;;;8.20;52.90;;;;;;5055271;28;20470;-70
2021/04/26 01:35:24;;;;;;;4.43;2.93;;;8.10;52.90;;;;;;5055304;28;20430;-70
2021/04/26 01:37:55;;;;;;;4.27;2.70;;;8.00;52.80;;;;;;5055205;28;20475;-70
2021/04/26 01:40:23;;;;;;;3.10;2.80;;;8.00;53.00;;;;;;5055120;28;20476;-71
2021/04/26 01:42:53;;;;;;;3.73;3.10;;;8.00;53.10;;;;;;5054716;28;20445;-70
2021/04/26 01:45:20;;;;;;;4.70;3.87;;;7.90;53.40;;;;;;5055093;28;20453;-70
2021/04/26 01:47:47;;;;;;;3.57;3.27;;;7.80;53.40;;;;;;5055135;28;20496;-70
2021/04/26 01:50:15;;;;;;;4.13;2.77;;;7.80;53.60;;;;;;5055043;28;20473;-71
2021/04/26 01:52:41;;;;;;;5.63;3.40;;;7.70;53.60;;;;;;5053565;28;20466;-70
2021/04/26 01:55:11;;;;;;;4.33;3.23;;;7.80;53.90;;;;;;5054529;28;20497;-70
2021/04/26 01:57:40;;;;;;;6.23;3.67;;;7.70;53.90;;;;;;5054461;28;20989;-70
2021/04/26 02:00:11;;;;;;;6.03;4.20;;;7.70;53.90;;;;;;5054652;28;20465;-71
2021/04/26 02:02:38;;;;;;;3.97;3.57;;;7.70;54.00;;;;;;5054708;28;20473;-70
2021/04/26 02:05:06;;;;;;;4.77;3.67;;;7.70;54.00;;;;;;5054628;28;20449;-70
2021/04/26 02:07:34;;;;;;;5.93;4.20;;;7.70;54.30;;;;;;5054316;28;20951;-70
2021/04/26 02:10:00;;;;;;;5.23;4.73;;;7.60;54.20;;;;;;5055096;28;20462;-70
2021/04/26 02:12:27;;;;;;;5.20;4.47;;;7.60;54.50;;;;;;5054427;28;20485;-70
2021/04/26 02:14:53;;;;;;;9.17;4.40;;;7.60;54.50;;;;;;5054442;28;20442;-70
2021/04/26 02:17:20;;;;;;;6.10;3.87;;;7.60;54.40;;;;;;5054380;28;21017;-70
2021/04/26 02:19:47;;;;;;;5.70;4.17;;;7.60;54.50;;;;;;5054500;28;20472;-70
2021/04/26 02:22:13;;;;;;;4.70;4.20;;;7.50;54.60;;;;;;5054362;28;20442;-70
2021/04/26 02:24:40;;;;;;;9.37;3.73;;;7.50;54.70;;;;;;5054502;28;20441;-70
2021/04/26 02:27:07;;;;;;;7.97;4.00;;;7.50;54.50;;;;;;5054276;28;20450;-70
2021/04/26 02:29:34;;;;;;;6.37;4.70;;;7.40;54.60;;;;;;5054082;28;20475;-70
2021/04/26 02:32:04;;;;;;;4.33;3.93;;;7.40;54.70;;;;;;5053724;28;20484;-70
2021/04/26 02:34:36;;;;;;;3.93;3.53;;;7.30;54.50;;;;;;5054108;28;20453;-70
2021/04/26 02:37:09;;;;;;;5.20;4.20;;;7.30;54.80;;;;;;5054091;28;20438;-70
2021/04/26 02:39:36;;;;;;;3.87;3.50;;;7.20;55.00;;;;;;5053834;28;20455;-70
2021/04/26 02:42:04;;;;;;;4.33;3.83;;;7.20;55.10;;;;;;5054024;28;20437;-70
2021/04/26 02:44:32;;;;;;;5.00;4.17;;;7.10;55.00;;;;;;5053928;28;20442;-70
2021/04/26 02:47:02;;;;;;;4.77;4.27;;;7.10;55.00;;;;;;5053906;28;20449;-70
2021/04/26 02:49:30;;;;;;;5.33;3.77;;;7.10;55.30;;;;;;5053901;28;20469;-70
2021/04/26 02:51:57;;;;;;;4.50;3.83;;;7.10;55.40;;;;;;5053501;28;20489;-70
2021/04/26 02:54:25;;;;;;;4.53;3.73;;;7.00;55.60;;;;;;5053822;28;20445;-70
2021/04/26 02:56:55;;;;;;;4.43;4.03;;;7.00;55.80;;;;;;5053495;28;20445;-70
2021/04/26 02:59:23;;;;;;;5.90;5.33;;;7.00;55.80;;;;;;5053639;28;20472;-70
2021/04/26 03:01:50;;;;;;;7.10;4.30;;;6.90;55.90;;;;;;5053310;28;20808;-70
2021/04/26 03:04:18;;;;;;;6.70;5.00;;;6.90;56.00;;;;;;5053455;28;20449;-70
2021/04/26 03:06:46;;;;;;;7.03;4.70;;;6.80;56.00;;;;;;5059600;28;20453;-69
2021/04/26 03:09:15;;;;;;;4.90;4.50;;;6.80;56.00;;;;;;5059199;28;20469;-70
2021/04/26 03:11:42;;;;;;;8.63;5.23;;;6.80;56.20;;;;;;5053610;28;20449;-70
2021/04/26 03:14:11;;;;;;;9.20;5.10;;;6.80;56.20;;;;;;5053182;28;20958;-70
2021/04/26 03:16:39;;;;;;;5.27;4.77;;;6.80;56.10;;;;;;5053608;28;20449;-70
2021/04/26 03:19:05;;;;;;;5.70;5.10;;;6.80;56.40;;;;;;5053067;28;20983;-70
2021/04/26 03:21:32;;;;;;;8.83;4.70;;;6.70;56.40;;;;;;5053443;28;20809;-70
2021/04/26 03:23:59;;;;;;;10.50;5.10;;;6.70;56.20;;;;;;5053267;28;20457;-70
2021/04/26 03:26:26;;;;;;;6.17;4.60;;;6.70;56.40;;;;;;5053402;28;20446;-70
2021/04/26 03:28:52;;;;;;;7.00;4.90;;;6.70;56.50;;;;;;5053388;28;20875;-70
2021/04/26 03:31:19;;;;;;;7.27;5.47;;;6.70;56.70;;;;;;5053025;28;20946;-70
2021/04/26 03:33:47;;;;;;;5.97;5.47;;;6.70;56.50;;;;;;5053336;28;20488;-70
2021/04/26 03:36:15;;;;;;;6.20;5.70;;;6.60;56.60;;;;;;5053638;28;20448;-70
2021/04/26 03:38:42;;;;;;;8.70;5.20;;;6.60;56.70;;;;;;5053203;28;20840;-70
2021/04/26 03:41:08;;;;;;;5.83;5.17;;;6.60;56.60;;;;;;5053324;28;20485;-70
2021/04/26 03:43:35;;;;;;;5.63;4.90;;;6.60;56.70;;;;;;5053338;28;20487;-70
2021/04/26 03:46:02;;;;;;;6.23;5.30;;;6.50;56.60;;;;;;5053774;28;20445;-70
2021/04/26 03:48:28;;;;;;;6.40;4.23;;;6.50;56.80;;;;;;5053079;28;20456;-70
2021/04/26 03:50:55;;;;;;;9.50;5.30;;;6.40;56.70;;;;;;5052996;28;20461;-70
2021/04/26 03:53:21;;;;;;;6.47;4.80;;;6.40;57.00;;;;;;5053116;28;20472;-70
2021/04/26 03:55:48;;;;;;;9.20;6.37;;;6.40;57.00;;;;;;5053086;28;20449;-70
2021/04/26 03:58:14;;;;;;;7.10;5.50;;;6.30;56.90;;;;;;5052997;28;20568;-71
2021/04/26 04:00:40;;;;;;;9.90;5.70;;;6.40;57.10;;;;;;5053022;28;20443;-70
2021/04/26 04:03:07;;;;;;;6.33;5.67;;;6.40;57.00;;;;;;5052748;28;20501;-70
2021/04/26 04:05:34;;;;;;;6.90;6.07;;;6.30;57.10;;;;;;5052674;28;20958;-70
2021/04/26 04:08:01;;;;;;;6.60;5.87;;;6.30;57.10;;;;;;5052983;28;20451;-70
2021/04/26 04:10:27;;;;;;;5.83;5.20;;;6.30;57.30;;;;;;5052653;28;20472;-70
2021/04/26 04:12:53;;;;;;;6.47;5.80;;;6.20;57.20;;;;;;5052816;28;20484;-70
2021/04/26 04:15:20;;;;;;;7.67;6.27;;;6.30;57.30;;;;;;5054391;28;20448;-70
2021/04/26 04:17:46;;;;;;;6.80;5.77;;;6.20;57.40;;;;;;5056476;28;20448;-70
2021/04/26 04:20:13;;;;;;;8.40;6.20;;;6.20;57.50;;;;;;5057075;28;20469;-70
2021/04/26 04:22:40;;;;;;;9.73;6.07;;;6.20;57.40;;;;;;5056660;28;20452;-70
2021/04/26 04:25:09;;;;;;;7.80;6.03;;;6.20;57.50;;;;;;5056584;28;20453;-70
2021/04/26 04:27:36;;;;;;;6.83;6.07;;;6.20;57.60;;;;;;5056171;28;21005;-69
2021/04/26 04:30:04;;;;;;;7.77;5.50;;;6.20;57.70;;;;;;5056465;28;20523;-69
2021/04/26 04:32:31;;;;;;;7.03;6.30;;;6.20;57.90;;;;;;5056175;28;20479;-69
2021/04/26 04:34:57;;;;;;;6.73;6.03;;;6.20;57.80;;;;;;5056745;28;20475;-69
2021/04/26 04:37:23;;;;;;;7.27;6.10;;;6.20;57.90;;;;;;5056385;28;20444;-69
2021/04/26 04:39:50;;;;;;;10.17;7.17;;;6.20;58.00;;;;;;5055969;28;20472;-70
2021/04/26 04:42:17;;;;;;;8.30;6.53;;;6.20;58.00;;;;;;5055958;28;20507;-70
2021/04/26 04:44:43;;;;;;;10.00;6.90;;;6.20;57.80;;;;;;5055895;28;20959;-70
2021/04/26 04:47:09;;;;;;;9.83;6.50;;;6.30;57.80;;;;;;5056123;28;20453;-70
2021/04/26 04:49:36;;;;;;;14.63;7.73;;;6.30;58.00;;;;;;5056023;28;20481;-70
2021/04/26 04:52:03;;;;;;;8.50;7.00;;;6.30;57.90;;;;;;5055656;28;20485;-70
2021/04/26 04:54:29;;;;;;;8.00;6.10;;;6.30;58.00;;;;;;5056015;28;20468;-70
2021/04/26 04:56:55;;;;;;;10.97;5.93;;;6.30;58.20;;;;;;5056040;28;20499;-70
2021/04/26 04:59:22;;;;;;;10.47;6.50;;;6.30;58.10;;;;;;5055874;28;20484;-71
2021/04/26 05:01:49;;;;;;;9.00;7.10;;;6.30;58.10;;;;;;5055877;28;20456;-71
2021/04/26 05:04:15;;;;;;;10.00;7.07;;;6.30;58.10;;;;;;5056749;28;20791;-70
2021/04/26 05:06:42;;;;;;;8.80;6.40;;;6.30;58.20;;;;;;5055482;28;20446;-70
2021/04/26 05:09:08;;;;;;;9.60;6.77;;;6.30;58.20;;;;;;5055757;28;20479;-71
2021/04/26 05:11:34;;;;;;;6.90;5.80;;;6.40;58.40;;;;;;5055764;28;20444;-70
2021/04/26 05:14:01;;;;;;;10.87;6.13;;;6.40;58.40;;;;;;5055583;28;20478;-70
2021/04/26 05:16:28;;;;;;;10.00;6.40;;;6.40;58.50;;;;;;5055303;28;20951;-70
2021/04/26 05:18:57;;;;;;;9.30;6.10;;;6.30;58.70;;;;;;5055527;28;20469;-71
2021/04/26 05:21:23;;;;;;;8.03;5.80;;;6.30;58.90;;;;;;5055694;28;20458;-71
2021/04/26 05:23:49;;;;;;;7.50;6.77;;;6.30;59.20;;;;;;5055490;28;20433;-70
2021/04/26 05:26:16;;;;;;;8.40;6.40;;;6.30;59.50;;;;;;5055249;28;20450;-70
2021/04/26 05:28:42;;;;;;;8.10;6.20;;;6.30;60.00;;;;;;5055281;28;20473;-71
2021/04/26 05:31:09;;;;;;;11.47;6.00;;;6.40;59.60;;;;;;5055384;28;20449;-71
2021/04/26 05:33:36;;;;;;;7.03;6.30;;;6.40;60.10;;;;;;5055275;28;20487;-70
2021/04/26 05:36:03;;;;;;;10.90;6.70;;;6.40;60.70;;;;;;5055229;28;20449;-70
2021/04/26 05:38:29;;;;;;;12.27;7.53;;;6.40;61.00;;;;;;5055096;28;20450;-71
2021/04/26 05:40:55;;;;;;;10.20;6.70;;;6.50;61.30;;;;;;5055044;28;20437;-70
2021/04/26 05:43:21;;;;;;;9.20;7.03;;;6.50;61.80;;;;;;5054646;28;20811;-70
2021/04/26 05:45:48;;;;;;;11.10;6.73;;;6.50;62.00;;;;;;5054684;28;20939;-70
2021/04/26 05:48:14;;;;;;;9.17;7.37;;;6.60;62.20;;;;;;5054620;28;20455;-71
2021/04/26 05:50:41;;;;;;;10.10;7.10;;;6.60;62.10;;;;;;5054686;28;20469;-71
2021/04/26 05:53:07;;;;;;;15.57;8.30;;;6.70;62.30;;;;;;5055130;28;20476;-71
2021/04/26 05:55:34;;;;;;;18.73;9.17;;;6.70;62.50;;;;;;5054597;28;20812;-71
2021/04/26 05:58:00;;;;;;;10.57;8.03;;;6.80;62.40;;;;;;5054872;28;20500;-71
2021/04/26 06:00:26;;;;;;;12.47;8.40;;;6.90;62.60;;;;;;5054703;28;20474;-71
2021/04/26 06:02:52;;;;;;;14.63;9.67;;;7.00;62.50;;;;;;5055001;28;20433;-71
2021/04/26 06:05:19;;;;;;;11.70;8.30;;;7.10;63.00;;;;;;5056500;28;20448;-71
2021/04/26 06:07:46;;;;;;;15.63;8.40;;;7.10;63.10;;;;;;5058127;28;20446;-70
2021/04/26 06:10:12;;;;;;;11.93;8.57;;;7.20;63.50;;;;;;5058175;28;20481;-70
2021/04/26 06:12:39;;;;;;;15.33;8.57;;;7.30;63.90;;;;;;5056966;28;20481;-70
2021/04/26 06:15:06;;;;;;;13.03;8.03;;;7.40;63.90;;;;;;5057988;28;20815;-70
2021/04/26 06:17:33;;;;;;;10.63;8.27;;;7.50;63.80;;;;;;5062944;28;20486;-70
2021/04/26 06:19:59;;;;;;;10.30;8.27;;;7.50;63.80;;;;;;5060385;28;20468;-70
2021/04/26 06:22:25;;;;;;;12.60;8.40;;;7.60;63.90;;;;;;5067764;28;20473;-69
2021/04/26 06:24:53;;;;;;;11.30;8.77;;;7.70;63.00;;;;;;5058392;28;20894;-70
2021/04/26 06:27:19;;;;;;;15.33;8.70;;;7.90;63.10;;;;;;5055311;28;20446;-70
2021/04/26 06:29:45;;;;;;;11.97;9.00;;;8.00;63.20;;;;;;5054784;28;20519;-70
2021/04/26 06:32:11;;;;;;;11.87;8.00;;;8.10;63.10;;;;;;5054462;28;20482;-71
2021/04/26 06:34:38;;;;;;;13.73;8.17;;;8.20;62.90;;;;;;5054454;28;20440;-71
2021/04/26 06:37:04;;;;;;;12.40;8.60;;;8.30;62.50;;;;;;5054075;28;20792;-70
2021/04/26 06:39:31;;;;;;;8.60;7.70;;;8.50;62.30;;;;;;5053928;28;20548;-71
2021/04/26 06:42:00;;;;;;;12.10;8.33;;;8.60;61.60;;;;;;5053792;28;20935;-71
2021/04/26 06:44:26;;;;;;;10.00;7.97;;;8.70;60.50;;;;;;5053971;28;20453;-70
2021/04/26 06:46:52;;;;;;;8.67;7.30;;;8.90;60.00;;;;;;5054061;28;20449;-71
2021/04/26 06:49:20;;;;;;;14.13;8.67;;;9.00;59.30;;;;;;5053933;28;20473;-70
2021/04/26 06:51:47;;;;;;;13.23;7.30;;;9.20;59.50;;;;;;5053614;28;20469;-70
2021/04/26 06:54:13;;;;;;;13.40;6.63;;;9.30;58.80;;;;;;5053831;28;20467;-70
2021/04/26 06:56:40;;;;;;;8.20;5.70;;;9.40;57.70;;;;;;5053899;28;20434;-70
2021/04/26 06:59:07;;;;;;;7.80;6.20;;;9.60;56.50;;;;;;5053701;28;20471;-70
2021/04/26 07:01:33;;;;;;;8.40;5.23;;;9.70;55.80;;;;;;5053782;28;20775;-71
2021/04/26 07:03:59;;;;;;;8.57;5.30;;;9.90;55.50;;;;;;5053793;28;20422;-70
2021/04/26 07:06:26;;;;;;;5.10;4.60;;;10.00;53.90;;;;;;5053603;28;20492;-70
2021/04/26 07:08:52;;;;;;;11.27;4.93;;;10.20;53.20;;;;;;5053611;28;20461;-71
2021/04/26 07:11:18;;;;;;;9.40;4.40;;;10.40;52.80;;;;;;5053573;28;20845;-71
2021/04/26 07:13:44;;;;;;;5.97;4.37;;;10.60;51.80;;;;;;5053126;28;20974;-71
2021/04/26 07:16:11;;;;;;;4.40;4.00;;;10.80;50.60;;;;;;5053449;28;20452;-70
2021/04/26 07:18:38;;;;;;;4.90;3.90;;;11.00;50.30;;;;;;5053439;28;20522;-71
2021/04/26 07:21:05;;;;;;;5.70;4.40;;;11.20;49.40;;;;;;5053163;28;20802;-71
2021/04/26 07:23:31;;;;;;;4.60;4.20;;;11.40;48.70;;;;;;5053379;28;20445;-70
2021/04/26 07:25:59;;;;;;;5.80;3.93;;;11.60;48.10;;;;;;5053068;28;20454;-70
2021/04/26 07:28:25;;;;;;;4.93;3.40;;;11.80;47.40;;;;;;5053243;28;20450;-71
2021/04/26 07:30:52;;;;;;;4.20;3.07;;;12.00;46.40;;;;;;5053042;28;20468;-71
2021/04/26 07:33:19;;;;;;;4.87;4.07;;;12.20;45.80;;;;;;5053247;28;20488;-71
2021/04/26 07:35:45;;;;;;;8.40;3.50;;;12.50;45.40;;;;;;5053873;28;20426;-70
2021/04/26 07:38:11;;;;;;;5.30;4.10;;;12.60;44.90;;;;;;5053353;28;20515;-70
2021/04/26 07:40:38;;;;;;;3.70;3.27;;;12.80;44.70;;;;;;5053157;28;20465;-70
2021/04/26 07:43:04;;;;;;;6.90;4.73;;;12.90;44.30;;;;;;5053274;28;20484;-70
2021/04/26 07:45:31;;;;;;;3.93;3.10;;;13.20;43.70;;;;;;5053199;28;20450;-70
2021/04/26 07:47:57;;;;;;;3.30;3.00;;;13.40;43.70;;;;;;5053216;28;20437;-70
2021/04/26 07:50:25;;;;;;;4.20;3.70;;;13.60;42.40;;;;;;5054273;28;20839;-71
2021/04/26 07:52:51;;;;;;;6.43;3.07;;;13.80;41.90;;;;;;5057098;28;20461;-71
2021/04/26 07:55:17;;;;;;;4.10;2.70;;;14.00;40.90;;;;;;5057164;28;20425;-71
2021/04/26 07:57:44;;;;;;;3.73;3.03;;;14.20;40.70;;;;;;5057163;28;20438;-70
2021/04/26 08:00:11;;;;;;;2.93;2.63;;;14.40;40.50;;;;;;5056988;28;20476;-71
2021/04/26 08:02:38;;;;;;;6.17;2.80;;;14.60;40.00;;;;;;5056879;28;20449;-70
2021/04/26 08:05:05;;;;;;;4.17;3.10;;;14.80;39.20;;;;;;5057084;28;20430;-71
2021/04/26 08:07:32;;;;;;;2.53;2.33;;;15.00;38.50;;;;;;5056642;28;20918;-71
2021/04/26 08:09:58;;;;;;;4.67;2.53;;;15.20;36.00;;;;;;5056798;28;20461;-71
2021/04/26 08:12:25;;;;;;;2.90;2.00;;;15.40;36.00;;;;;;5056787;28;20472;-71
2021/04/26 08:14:51;;;;;;;5.90;2.60;;;15.50;35.90;;;;;;5056814;28;20438;-71
2021/04/26 08:17:17;;;;;;;3.70;2.30;;;15.80;35.80;;;;;;5056739;28;20452;-71
2021/04/26 08:19:44;;;;;;;5.13;2.83;;;15.90;34.90;;;;;;5056653;28;20465;-71
2021/04/26 08:22:11;;;;;;;3.80;2.20;;;16.10;33.00;;;;;;5056315;28;20441;-71
2021/04/26 08:24:38;;;;;;;2.80;1.97;;;16.20;33.20;;;;;;5056374;28;20453;-71
2021/04/26 08:27:05;;;;;;;5.90;2.33;;;16.40;33.20;;;;;;5056207;28;20969;-71
2021/04/26 08:29:31;;;;;;;12.13;2.30;;;16.50;32.90;;;;;;5056488;28;20469;-71
2021/04/26 08:31:58;;;;;;;3.63;2.07;;;16.70;32.40;;;;;;5056354;28;20449;-71
2021/04/26 08:34:25;;;;;;;6.00;2.40;;;16.90;32.00;;;;;;5056438;28;20429;-71
2021/04/26 08:36:51;;;;;;;1.90;1.80;;;17.00;29.40;;;;;;5056438;28;20805;-71
2021/04/26 08:39:17;;;;;;;3.87;2.20;;;17.10;30.10;;;;;;5056253;28;20522;-71
2021/04/26 08:41:46;;;;;;;3.80;2.07;;;17.20;30.30;;;;;;5056311;28;20437;-71
2021/04/26 08:44:12;;;;;;;2.73;2.00;;;17.40;30.60;;;;;;5056178;28;20445;-71
2021/04/26 08:46:43;;;;;;;4.20;2.60;;;17.60;29.70;;;;;;5055849;28;20822;-71
2021/04/26 08:49:10;;;;;;;2.63;2.10;;;17.90;29.80;;;;;;5056065;28;20474;-71
2021/04/26 08:51:38;;;;;;;2.37;1.90;;;18.10;30.00;;;;;;5055802;28;20457;-71
2021/04/26 08:54:05;;;;;;;7.23;1.67;;;18.30;29.30;;;;;;5055959;28;20481;-71
2021/04/26 08:56:32;;;;;;;2.93;1.90;;;18.50;29.30;;;;;;5056710;28;20544;-71
2021/04/26 08:58:59;;;;;;;5.20;2.17;;;18.70;29.20;;;;;;5055630;28;20997;-71
2021/04/26 09:01:26;;;;;;;2.37;1.83;;;19.00;29.50;;;;;;5055429;28;20433;-71
2021/04/26 09:03:52;;;;;;;2.00;1.70;;;19.20;29.00;;;;;;5055918;28;20430;-71
2021/04/26 09:06:18;;;;;;;2.40;1.67;;;19.30;28.20;;;;;;5055841;28;20468;-71
2021/04/26 09:08:50;;;;;;;2.03;1.27;;;19.50;28.10;;;;;;5055719;28;20465;-71
2021/04/26 09:11:16;;;;;;;3.93;1.53;;;19.60;27.70;;;;;;5055536;28;20438;-71
2021/04/26 09:13:45;;;;;;;2.60;1.60;;;19.80;27.80;;;;;;5055581;28;20489;-71
2021/04/26 09:16:19;;;;;;;2.10;1.30;;;20.00;27.60;;;;;;5055963;28;20445;-71
2021/04/26 09:18:48;;;;;;;2.13;1.57;;;20.10;26.70;;;;;;5055640;28;20474;-72
2021/04/26 09:21:17;;;;;;;2.57;1.43;;;20.30;26.50;;;;;;5055666;28;20441;-71
2021/04/26 09:23:44;;;;;;;2.20;1.30;;;20.40;26.20;;;;;;5055386;28;20904;-71
2021/04/26 09:26:24;;;;;;;2.93;1.50;;;20.60;26.60;;;;;;5055185;28;20974;-71
2021/04/26 09:29:18;;;;;;;2.30;1.23;;;20.90;26.80;;;;;;5055423;28;20476;-71
2021/04/26 09:32:01;;;;;;;2.60;1.57;;;21.00;26.40;;;;;;5055575;28;20418;-71
2021/04/26 09:34:32;;;;;;;2.13;1.47;;;21.20;25.60;;;;;;5055505;28;20496;-71
2021/04/26 09:37:11;;;;;;;3.67;1.70;;;21.40;25.50;;;;;;5055919;28;20434;-71
2021/04/26 09:39:39;;;;;;;4.30;1.70;;;21.60;25.50;;;;;;5055229;28;20449;-71
2021/04/26 09:42:05;;;;;;;2.40;1.67;;;21.70;25.30;;;;;;5055419;28;20430;-71
2021/04/26 09:44:32;;;;;;;2.30;1.50;;;21.90;25.10;;;;;;5054949;28;20454;-71
2021/04/26 09:46:59;;;;;;;2.13;1.40;;;22.00;24.40;;;;;;5055041;28;20903;-71
2021/04/26 09:49:27;;;;;;;2.20;1.27;;;22.20;24.30;;;;;;5055047;28;20520;-71
2021/04/26 09:51:55;;;;;;;1.73;1.40;;;22.50;24.20;;;;;;5054708;28;20900;-71
2021/04/26 09:54:40;;;;;;;1.57;1.47;;;22.70;23.00;;;;;;5054938;28;20469;-71
2021/04/26 09:57:06;;;;;;;2.83;1.63;;;23.00;23.60;;;;;;5054898;28;20461;-71
2021/04/26 09:59:33;;;;;;;3.40;1.70;;;23.00;23.10;;;;;;5054857;28;20471;-71
2021/04/26 10:02:01;;;;;;;4.73;1.87;;;23.20;23.20;;;;;;5054812;28;20442;-71
2021/04/26 10:04:27;;;;;;;2.20;1.63;;;23.50;23.50;;;;;;5054740;28;20418;-71
2021/04/26 10:06:53;;;;;;;3.30;1.77;;;23.70;23.40;;;;;;5054639;28;20503;-71
2021/04/26 10:09:20;;;;;;;1.60;1.47;;;23.90;23.50;;;;;;5054303;28;20879;-71
2021/04/26 10:11:47;;;;;;;2.87;1.73;;;24.30;22.80;;;;;;5054472;28;20461;-71
2021/04/26 10:14:15;;;;;;;2.40;1.43;;;24.60;22.50;;;;;;5053746;28;20486;-71
2021/04/26 10:16:46;;;;;;;8.20;2.10;;;24.90;22.10;;;;;;5054493;28;20500;-71
2021/04/26 10:19:14;;;;;;;2.03;1.43;;;25.30;21.80;;;;;;5054431;28;20523;-72
2021/04/26 10:21:42;;;;;;;2.10;1.47;;;25.70;21.10;;;;;;5054369;28;20453;-72
2021/04/26 10:24:19;;;;;;;2.63;1.40;;;26.00;20.80;;;;;;5054088;28;20449;-72
2021/04/26 10:26:49;;;;;;;3.27;1.60;;;26.30;21.10;;;;;;5054263;28;20450;-72
2021/04/26 10:29:18;;;;;;;4.03;1.67;;;26.70;20.10;;;;;;5054150;28;20472;-72
2021/04/26 10:32:05;;;;;;;2.47;1.63;;;27.10;20.20;;;;;;5054181;28;20445;-72
2021/04/26 10:34:34;;;;;;;3.10;1.70;;;27.60;19.60;;;;;;5054305;28;20466;-72
2021/04/26 10:37:02;;;;;;;2.40;1.77;;;28.10;19.20;;;;;;5054074;28;20815;-72
2021/04/26 10:39:30;;;;;;;4.20;2.10;;;28.50;18.70;;;;;;5053701;28;20489;-74
2021/04/26 10:42:06;;;;;;;3.50;1.90;;;29.00;18.30;;;;;;5053888;28;20453;-72
2021/04/26 10:44:52;;;;;;;6.90;2.73;;;29.50;17.90;;;;;;5053530;28;20907;-72
2021/04/26 10:47:22;;;;;;;4.10;2.43;;;30.10;17.40;;;;;;5053682;28;20429;-72
2021/04/26 10:49:51;;;;;;;3.90;1.93;;;30.60;16.30;;;;;;5053762;28;20809;-72
2021/04/26 10:52:36;;;;;;;3.90;1.83;;;31.00;16.20;;;;;;5053463;28;20460;-72
2021/04/26 10:55:07;;;;;;;2.40;1.83;;;31.60;16.20;;;;;;5053628;28;20436;-72
2021/04/26 10:57:36;;;;;;;2.73;2.50;;;32.10;15.80;;;;;;5053721;28;20421;-72
2021/04/26 11:00:51;;;;;;;5.13;2.17;;;32.70;15.00;;;;;;5053691;28;20551;-72
2021/04/26 11:03:34;;;;;;;2.70;2.17;;;33.10;12.80;;;;;;5011759;28;20514;-72
2021/04/26 11:06:21;;;;;;;3.30;2.30;;;33.60;14.20;;;;;;5048469;28;20456;-71
2021/04/26 11:08:52;;;;;;;3.73;2.20;;;34.00;14.30;;;;;;5053715;28;20547;-72
2021/04/26 11:11:25;;;;;;;4.60;2.70;;;34.30;13.80;;;;;;5053729;28;20438;-71
2021/04/26 11:13:54;;;;;;;3.80;2.30;;;34.70;13.50;;;;;;5053118;28;20472;-71
2021/04/26 11:16:22;;;;;;;3.40;2.90;;;34.80;13.20;;;;;;5053402;28;20445;-71
2021/04/26 11:19:06;;;;;;;3.60;3.00;;;34.90;13.50;;;;;;5053452;28;20477;-72
2021/04/26 11:21:54;;;;;;;4.63;2.80;;;35.10;13.20;;;;;;5053578;28;20452;-71
2021/04/26 11:24:49;;;;;;;4.10;2.50;;;35.30;12.40;;;;;;5053238;28;20436;-71
2021/04/26 11:27:25;;;;;;;5.43;3.00;;;35.40;12.80;;;;;;5029583;28;20550;-71
2021/04/26 11:30:11;;;;;;;4.40;2.70;;;35.60;13.50;;;;;;5053004;28;20839;-72
2021/04/26 11:33:09;;;;;;;3.93;2.17;;;35.90;12.60;;;;;;5053919;28;20469;-71
2021/04/26 11:35:57;;;;;;;4.37;2.83;;;36.00;12.70;;;;;;5051398;28;20452;-72
2021/04/26 11:38:25;;;;;;;6.30;2.37;;;36.20;12.60;;;;;;5052774;28;20822;-72
2021/04/26 11:40:53;;;;;;;2.83;2.63;;;36.40;11.30;;;;;;5052957;28;20938;-72
2021/04/26 11:43:19;;;;;;;4.30;2.53;;;36.30;11.50;;;;;;5053276;28;20855;-72
2021/04/26 11:45:47;;;;;;;10.90;3.10;;;36.40;12.20;;;;;;5052977;28;20438;-72
2021/04/26 11:48:20;;;;;;;3.20;2.60;;;36.30;11.30;;;;;;5053231;28;20433;-72
2021/04/26 11:50:47;;;;;;;3.07;2.07;;;36.50;12.30;;;;;;5053054;28;20463;-72
2021/04/26 11:53:30;;;;;;;3.13;2.60;;;36.70;12.20;;;;;;5053142;28;20560;-72
2021/04/26 11:56:10;;;;;;;3.80;2.53;;;37.10;11.90;;;;;;5053227;28;20487;-72
2021/04/26 11:58:37;;;;;;;3.27;2.70;;;37.50;11.90;;;;;;5053202;28;20257;-73
2021/04/26 12:01:10;;;;;;;4.83;2.70;;;37.90;11.60;;;;;;5052795;28;20676;-72
2021/04/26 12:03:57;;;;;;;4.57;2.77;;;38.20;11.30;;;;;;5052812;28;20707;-72
2021/04/26 12:06:24;;;;;;;4.93;2.70;;;38.60;11.30;;;;;;5053084;28;20191;-72
2021/04/26 12:08:51;;;;;;;2.83;2.20;;;38.90;11.00;;;;;;5052937;28;20222;-72
2021/04/26 12:11:20;;;;;;;4.93;3.60;;;39.30;10.40;;;;;;5052774;28;20198;-72
2021/04/26 12:14:04;;;;;;;2.88;2.67;;;39.50;10.00;;;;;;5052638;28;20211;-73
2021/04/26 12:16:31;;;;;;;4.45;3.30;;;39.60;10.60;;;;;;5052691;28;20194;-73
2021/04/26 12:18:58;;;;;;;3.25;3.00;;;39.70;10.50;;;;;;5052496;28;20227;-73
2021/04/26 12:21:25;;;;;;;3.30;3.00;;;39.90;10.10;;;;;;5052536;28;20680;-73
2021/04/26 12:23:52;;;;;;;3.90;3.50;;;39.60;9.60;;;;;;5052854;28;20198;-73
2021/04/26 12:26:19;;;;;;;4.10;3.25;;;39.70;10.80;;;;;;5052604;28;20194;-73
2021/04/26 12:28:48;;;;;;;4.65;2.88;;;40.00;10.60;;;;;;5052748;28;20288;-73
2021/04/26 12:31:25;;;;;;;4.60;3.60;;;40.30;10.40;;;;;;5052926;28;20202;-73
2021/04/26 12:33:52;;;;;;;4.25;3.38;;;40.60;9.10;;;;;;5053013;28;20245;-73
2021/04/26 12:36:19;;;;;;;4.40;3.17;;;40.90;8.40;;;;;;5054679;28;20190;-72
2021/04/26 12:38:53;;;;;;;3.72;3.40;;;40.90;9.20;;;;;;5056076;28;20273;-72
2021/04/26 12:41:20;;;;;;;7.10;3.20;;;41.10;9.60;;;;;;5056430;28;20195;-72
2021/04/26 12:43:53;;;;;;;5.75;3.65;;;41.30;9.30;;;;;;5056333;28;20202;-72
2021/04/26 12:46:20;;;;;;;3.95;3.40;;;41.40;9.40;;;;;;5056337;28;20191;-72
2021/04/26 12:48:47;;;;;;;3.80;3.50;;;41.60;9.40;;;;;;5056566;28;20231;-72
2021/04/26 12:51:27;;;;;;;2.70;2.50;;;41.80;9.20;;;;;;5056025;28;20218;-72
2021/04/26 12:54:07;;;;;;;4.97;3.35;;;41.80;8.90;;;;;;5055649;28;20293;-72
2021/04/26 12:56:34;;;;;;;5.55;2.83;;;42.00;9.50;;;;;;5055968;28;20194;-73
2021/04/26 12:59:00;;;;;;;3.75;3.35;;;42.20;9.00;;;;;;5055974;28;20261;-73